createdAt,value
2023-04-29T00:01:00.336Z,32.83
2023-04-29T00:03:28.779Z,26.65
2023-04-29T00:05:57.376Z,23.08
2023-04-29T00:08:26.134Z,24.88
2023-04-29T00:10:54.397Z,23.30
2023-04-29T00:13:22.668Z,24.05
2023-04-29T00:15:50.892Z,26.25
2023-04-29T00:18:19.065Z,20.52
2023-04-29T00:20:47.326Z,22.05
2023-04-29T00:23:15.394Z,23.65
2023-04-29T00:25:43.531Z,21.60
2023-04-29T00:28:11.977Z,21.02
2023-04-29T00:30:40.136Z,22.70
2023-04-29T00:33:08.612Z,21.50
2023-04-29T00:35:37.034Z,31.75
2023-04-29T00:38:05.082Z,21.80
2023-04-29T00:40:33.514Z,31.83
2023-04-29T00:43:01.701Z,32.38
2023-04-29T00:45:30.059Z,29.27
2023-04-29T00:47:58.176Z,28.05
2023-04-29T00:50:26.393Z,23.65
2023-04-29T00:52:56.340Z,20.30
2023-04-29T00:55:25.265Z,23.83
2023-04-29T00:57:54.054Z,18.70
2023-04-29T01:00:22.497Z,25.40
2023-04-29T01:02:51.068Z,27.55
2023-04-29T01:05:19.301Z,24.40
2023-04-29T01:08:13.243Z,26.63
2023-04-29T01:11:06.394Z,28.02
2023-04-29T01:13:59.670Z,23.23
2023-04-29T01:16:51.949Z,23.80
2023-04-29T01:19:39.579Z,21.05
2023-04-29T01:22:07.979Z,26.83
2023-04-29T01:24:36.590Z,28.60
2023-04-29T01:27:37.786Z,28.70
2023-04-29T01:30:24.027Z,35.05
2023-04-29T01:33:16.412Z,40.25
2023-04-29T01:35:56.824Z,31.48
2023-04-29T01:38:42.580Z,33.83
2023-04-29T01:41:41.159Z,34.28
2023-04-29T01:44:24.950Z,34.50
2023-04-29T01:46:54.544Z,31.33
2023-04-29T01:49:30.864Z,34.40
2023-04-29T01:51:59.111Z,38.85
2023-04-29T01:54:27.420Z,34.20
2023-04-29T01:56:57.176Z,27.55
2023-04-29T01:59:43.793Z,37.45
2023-04-29T02:02:32.138Z,33.75
2023-04-29T02:05:10.791Z,29.45
2023-04-29T02:07:45.645Z,34.90
2023-04-29T02:10:13.980Z,32.90
2023-04-29T02:12:44.396Z,32.70
2023-04-29T02:15:13.118Z,23.48
2023-04-29T02:17:41.513Z,27.40
2023-04-29T02:20:10.237Z,28.42
2023-04-29T02:22:38.512Z,25.20
2023-04-29T02:25:07.108Z,21.08
2023-04-29T02:27:35.422Z,24.30
2023-04-29T02:30:04.215Z,21.42
2023-04-29T02:32:32.849Z,20.65
2023-04-29T02:35:01.256Z,28.73
2023-04-29T02:37:29.788Z,30.73
2023-04-29T02:39:58.035Z,25.95
2023-04-29T02:42:26.756Z,25.58
2023-04-29T02:44:54.894Z,24.20
2023-04-29T02:47:23.237Z,28.00
2023-04-29T02:49:51.868Z,30.02
2023-04-29T02:52:20.126Z,25.35
2023-04-29T02:54:49.450Z,22.65
2023-04-29T02:57:17.912Z,20.17
2023-04-29T02:59:46.073Z,17.17
2023-04-29T03:02:14.466Z,26.30
2023-04-29T03:04:44.903Z,30.38
2023-04-29T03:07:13.360Z,27.15
2023-04-29T03:09:41.450Z,19.10
2023-04-29T03:12:09.807Z,24.67
2023-04-29T03:14:38.147Z,28.98
2023-04-29T03:17:06.416Z,33.65
2023-04-29T03:19:34.788Z,28.02
2023-04-29T03:22:03.032Z,31.08
2023-04-29T03:24:31.620Z,27.25
2023-04-29T03:26:59.965Z,25.90
2023-04-29T03:29:28.220Z,24.55
2023-04-29T03:31:57.146Z,27.92
2023-04-29T03:34:25.696Z,29.48
2023-04-29T03:37:09.778Z,28.55
2023-04-29T03:39:41.131Z,26.13
2023-04-29T03:42:09.626Z,26.63
2023-04-29T03:44:37.686Z,23.38
2023-04-29T03:47:05.894Z,31.83
2023-04-29T03:49:34.180Z,26.63
2023-04-29T03:52:02.704Z,24.45
2023-04-29T03:54:30.914Z,26.60
2023-04-29T03:56:59.132Z,22.92
2023-04-29T03:59:27.468Z,20.27
2023-04-29T04:01:56.012Z,26.52
2023-04-29T04:04:24.557Z,22.58
2023-04-29T04:06:52.917Z,37.08
2023-04-29T04:09:25.182Z,22.70
2023-04-29T04:11:53.529Z,20.17
2023-04-29T04:14:21.867Z,30.00
2023-04-29T04:16:51.138Z,21.45
2023-04-29T04:19:19.426Z,29.05
2023-04-29T04:21:48.085Z,20.20
2023-04-29T04:24:16.230Z,20.92
2023-04-29T04:26:44.517Z,19.65
2023-04-29T04:29:36.338Z,23.60
2023-04-29T04:32:17.846Z,25.10
2023-04-29T04:34:46.097Z,24.30
2023-04-29T04:37:14.651Z,27.83
2023-04-29T04:39:47.937Z,26.63
2023-04-29T04:42:17.098Z,19.05
2023-04-29T04:44:51.665Z,33.55
2023-04-29T04:47:49.218Z,25.70
2023-04-29T04:50:30.987Z,36.25
2023-04-29T04:52:59.240Z,28.67
2023-04-29T04:55:50.060Z,27.60
2023-04-29T04:58:19.033Z,21.80
2023-04-29T05:00:47.272Z,30.10
2023-04-29T05:03:15.770Z,26.02
2023-04-29T05:05:44.088Z,24.40
2023-04-29T05:08:12.635Z,24.55
2023-04-29T05:10:47.823Z,27.45
2023-04-29T05:13:17.086Z,30.83
2023-04-29T05:15:45.782Z,25.70
2023-04-29T05:18:18.456Z,19.85
2023-04-29T05:20:49.655Z,26.10
2023-04-29T05:23:18.124Z,20.58
2023-04-29T05:25:47.721Z,20.88
2023-04-29T05:28:18.341Z,24.38
2023-04-29T05:30:47.059Z,25.00
2023-04-29T05:33:15.499Z,23.42
2023-04-29T05:35:44.800Z,21.60
2023-04-29T05:38:13.363Z,25.55
2023-04-29T05:43:36.888Z,24.33
2023-04-29T05:46:06.252Z,29.80
2023-04-29T05:48:34.509Z,22.58
2023-04-29T05:51:03.128Z,22.75
2023-04-29T05:53:31.684Z,27.10
2023-04-29T05:56:00.132Z,35.10
2023-04-29T05:58:28.471Z,19.42
2023-04-29T06:00:59.312Z,26.48
2023-04-29T06:03:29.073Z,32.20
2023-04-29T06:06:16.846Z,31.15
2023-04-29T06:09:02.143Z,22.00
2023-04-29T06:11:32.271Z,24.90
2023-04-29T06:14:02.738Z,32.22
2023-04-29T06:16:31.199Z,30.02
2023-04-29T06:18:59.920Z,20.95
2023-04-29T06:21:29.300Z,26.00
2023-04-29T06:23:58.031Z,25.80
2023-04-29T06:26:26.255Z,27.17
2023-04-29T06:28:54.348Z,24.13
2023-04-29T06:31:23.312Z,28.08
2023-04-29T06:33:56.229Z,25.73
2023-04-29T06:36:25.195Z,31.38
2023-04-29T06:39:28.449Z,21.98
2023-04-29T06:42:14.884Z,24.77
2023-04-29T06:45:01.486Z,25.92
2023-04-29T06:47:41.990Z,20.90
2023-04-29T06:50:14.537Z,32.45
2023-04-29T06:52:44.772Z,30.63
2023-04-29T06:55:13.097Z,30.67
2023-04-29T06:57:43.695Z,34.42
2023-04-29T07:00:15.504Z,38.03
2023-04-29T07:02:44.242Z,38.47
2023-04-29T07:05:12.625Z,31.52
2023-04-29T07:07:40.928Z,34.42
2023-04-29T07:10:09.654Z,25.95
2023-04-29T07:12:37.868Z,28.77
2023-04-29T07:15:06.453Z,27.80
2023-04-29T07:17:34.701Z,34.50
2023-04-29T07:20:03.320Z,34.05
2023-04-29T07:22:31.747Z,29.88
2023-04-29T07:24:59.889Z,25.55
2023-04-29T07:27:28.243Z,75.78
2023-04-29T07:29:56.609Z,100.93
2023-04-29T07:32:25.126Z,93.07
2023-04-29T07:34:53.895Z,69.70
2023-04-29T07:37:22.612Z,62.25
2023-04-29T07:39:51.605Z,41.97
2023-04-29T07:42:22.119Z,41.42
2023-04-29T07:44:50.586Z,29.13
2023-04-29T07:47:20.315Z,35.13
2023-04-29T07:49:48.769Z,26.73
2023-04-29T07:52:17.236Z,29.55
2023-04-29T07:54:45.641Z,31.05
2023-04-29T07:57:13.876Z,28.38
2023-04-29T07:59:42.385Z,32.90
2023-04-29T08:02:10.692Z,34.40
2023-04-29T08:04:41.182Z,38.50
2023-04-29T08:07:12.095Z,35.10
2023-04-29T08:09:40.324Z,29.02
2023-04-29T08:12:11.236Z,39.63
2023-04-29T08:14:41.613Z,35.33
2023-04-29T08:17:09.980Z,30.92
2023-04-29T08:19:38.557Z,40.00
2023-04-29T08:22:06.725Z,30.67
2023-04-29T08:24:38.333Z,35.45
2023-04-29T08:27:06.602Z,47.08
2023-04-29T08:29:34.958Z,38.53
2023-04-29T08:32:03.188Z,31.30
2023-04-29T08:34:32.262Z,26.52
2023-04-29T08:37:00.641Z,32.78
2023-04-29T08:39:32.046Z,27.10
2023-04-29T08:42:00.538Z,25.33
2023-04-29T08:44:28.778Z,27.08
2023-04-29T08:47:00.214Z,31.92
2023-04-29T08:49:29.858Z,29.80
2023-04-29T08:51:58.176Z,22.45
2023-04-29T08:54:26.493Z,27.70
2023-04-29T08:56:56.050Z,31.80
2023-04-29T08:59:25.313Z,30.73
2023-04-29T09:01:55.792Z,29.25
2023-04-29T09:04:48.816Z,29.98
2023-04-29T09:07:17.967Z,31.35
2023-04-29T09:09:47.142Z,35.25
2023-04-29T09:12:15.417Z,31.45
2023-04-29T09:14:43.676Z,30.77
2023-04-29T09:17:11.965Z,38.47
2023-04-29T09:19:40.312Z,30.58
2023-04-29T09:22:08.481Z,35.67
2023-04-29T09:24:36.837Z,40.15
2023-04-29T09:27:05.080Z,28.20
2023-04-29T09:29:33.446Z,37.92
2023-04-29T09:32:01.762Z,37.15
2023-04-29T09:34:36.639Z,36.40
2023-04-29T09:37:05.774Z,42.17
2023-04-29T09:39:40.721Z,41.95
2023-04-29T09:42:09.103Z,37.08
2023-04-29T09:44:37.216Z,32.63
2023-04-29T09:47:10.571Z,24.35
2023-04-29T09:49:41.277Z,24.42
2023-04-29T09:52:14.651Z,19.42
2023-04-29T09:54:44.233Z,21.85
2023-04-29T09:57:13.970Z,28.15
2023-04-29T09:59:43.215Z,19.35
2023-04-29T10:02:19.175Z,25.42
2023-04-29T10:04:53.805Z,24.00
2023-04-29T10:07:23.178Z,30.27
2023-04-29T10:09:51.351Z,19.20
2023-04-29T10:12:23.000Z,23.48
2023-04-29T10:14:55.863Z,20.10
2023-04-29T10:17:46.176Z,20.45
2023-04-29T10:20:18.278Z,11.82
2023-04-29T10:22:50.851Z,13.60
2023-04-29T10:25:23.421Z,16.45
2023-04-29T10:27:52.552Z,18.77
2023-04-29T10:30:22.041Z,12.20
2023-04-29T10:32:52.726Z,12.00
2023-04-29T10:35:22.396Z,14.80
2023-04-29T10:37:51.309Z,13.75
2023-04-29T10:40:31.367Z,14.30
2023-04-29T10:43:00.014Z,11.63
2023-04-29T10:45:28.303Z,21.38
2023-04-29T10:48:05.376Z,13.57
2023-04-29T10:50:34.435Z,16.10
2023-04-29T10:53:06.625Z,10.60
2023-04-29T10:55:39.219Z,12.55
2023-04-29T10:58:26.631Z,12.13
2023-04-29T11:00:55.167Z,19.90
2023-04-29T11:03:49.595Z,13.05
2023-04-29T11:06:18.127Z,18.83
2023-04-29T11:08:59.825Z,11.38
2023-04-29T11:11:28.432Z,18.85
2023-04-29T11:13:56.622Z,13.20
2023-04-29T11:16:27.438Z,12.55
2023-04-29T11:19:21.836Z,18.77
2023-04-29T11:22:04.004Z,13.75
2023-04-29T11:27:03.099Z,17.35
2023-04-29T11:29:33.415Z,16.13
2023-04-29T11:32:03.051Z,10.65
2023-04-29T11:34:32.712Z,15.43
2023-04-29T11:37:01.066Z,16.50
2023-04-29T11:39:29.500Z,21.83
2023-04-29T11:42:20.169Z,12.95
2023-04-29T11:44:52.244Z,11.88
2023-04-29T11:47:31.139Z,14.68
2023-04-29T11:50:06.748Z,15.77
2023-04-29T11:52:38.388Z,14.68
2023-04-29T11:55:09.402Z,12.02
2023-04-29T11:57:38.343Z,17.73
2023-04-29T12:00:09.458Z,13.00
2023-04-29T12:02:38.723Z,13.18
2023-04-29T12:05:09.003Z,14.65
2023-04-29T12:07:37.519Z,9.35
2023-04-29T12:10:10.209Z,15.88
2023-04-29T12:12:39.648Z,12.20
2023-04-29T12:15:09.467Z,12.73
2023-04-29T12:17:38.968Z,13.95
2023-04-29T12:20:08.395Z,18.58
2023-04-29T12:22:37.016Z,15.48
2023-04-29T12:25:06.645Z,17.92
2023-04-29T12:27:40.992Z,17.02
2023-04-29T12:30:10.419Z,13.85
2023-04-29T12:32:39.540Z,19.75
2023-04-29T12:35:15.310Z,16.95
2023-04-29T12:37:43.638Z,14.00
2023-04-29T12:40:16.166Z,13.35
2023-04-29T12:42:44.966Z,16.98
2023-04-29T12:45:30.090Z,19.30
2023-04-29T12:47:58.841Z,13.05
2023-04-29T12:50:34.703Z,10.30
2023-04-29T12:53:06.880Z,14.40
2023-04-29T12:55:38.960Z,13.25
2023-04-29T12:58:07.597Z,11.30
2023-04-29T13:00:35.877Z,10.70
2023-04-29T13:03:04.928Z,16.65
2023-04-29T13:05:33.625Z,12.55
2023-04-29T13:08:02.204Z,15.05
2023-04-29T13:10:30.613Z,16.65
2023-04-29T13:12:58.817Z,10.00
2023-04-29T13:15:27.563Z,96.32
2023-04-29T13:17:55.920Z,18.10
2023-04-29T13:20:24.152Z,24.98
2023-04-29T13:22:52.354Z,14.13
2023-04-29T13:25:20.754Z,11.68
2023-04-29T13:27:52.513Z,6.68
2023-04-29T13:30:20.878Z,12.63
2023-04-29T13:32:55.155Z,25.88
2023-04-29T13:35:23.670Z,9.98
2023-04-29T13:37:52.017Z,11.75
2023-04-29T13:40:21.418Z,17.10
2023-04-29T13:42:53.331Z,22.15
2023-04-29T13:45:29.106Z,13.52
2023-04-29T13:48:09.480Z,13.63
2023-04-29T13:53:31.703Z,9.37
2023-04-29T14:01:26.155Z,17.40
2023-04-29T14:03:56.105Z,17.83
2023-04-29T14:06:27.175Z,30.77
2023-04-29T14:08:55.864Z,10.87
2023-04-29T14:11:24.041Z,15.15
2023-04-29T14:13:52.351Z,15.60
2023-04-29T14:16:21.527Z,14.40
2023-04-29T14:18:50.036Z,11.07
2023-04-29T14:21:18.264Z,34.83
2023-04-29T14:23:46.629Z,27.00
2023-04-29T14:28:46.481Z,17.33
2023-04-29T14:31:14.837Z,14.90
2023-04-29T14:33:43.301Z,13.48
2023-04-29T14:36:11.552Z,11.75
2023-04-29T14:38:39.906Z,14.45
2023-04-29T14:41:08.190Z,11.82
2023-04-29T14:43:37.742Z,15.73
2023-04-29T14:46:06.498Z,23.23
2023-04-29T14:48:35.148Z,23.23
2023-04-29T14:51:03.533Z,15.98
2023-04-29T14:53:31.796Z,11.73
2023-04-29T14:55:59.871Z,16.48
2023-04-29T14:58:28.227Z,11.95
2023-04-29T15:00:59.081Z,15.90
2023-04-29T15:03:27.531Z,18.17
2023-04-29T15:05:56.116Z,29.67
2023-04-29T15:08:24.717Z,23.08
2023-04-29T15:10:52.804Z,13.48
2023-04-29T15:13:20.972Z,26.42
2023-04-29T15:15:50.095Z,15.90
2023-04-29T15:18:18.293Z,18.17
2023-04-29T15:20:46.710Z,11.02
2023-04-29T15:23:14.804Z,16.40
2023-04-29T15:25:43.148Z,18.73
2023-04-29T15:28:11.498Z,12.73
2023-04-29T15:30:39.719Z,14.48
2023-04-29T15:33:08.131Z,13.60
2023-04-29T15:35:36.380Z,12.68
2023-04-29T15:38:04.728Z,11.20
2023-04-29T15:40:33.269Z,26.05
2023-04-29T15:43:01.480Z,20.05
2023-04-29T15:45:29.728Z,17.55
2023-04-29T15:47:58.012Z,22.85
2023-04-29T15:50:26.331Z,15.07
2023-04-29T15:52:54.921Z,15.50
2023-04-29T15:55:23.074Z,17.10
2023-04-29T15:57:51.213Z,23.55
2023-04-29T16:00:19.552Z,25.73
2023-04-29T16:02:47.871Z,19.00
2023-04-29T16:05:16.353Z,17.67
2023-04-29T16:07:44.581Z,13.05
2023-04-29T16:10:12.847Z,11.50
2023-04-29T16:12:41.144Z,17.85
2023-04-29T16:15:09.923Z,22.70
2023-04-29T16:17:38.136Z,18.15
2023-04-29T16:20:06.901Z,23.52
2023-04-29T16:22:35.124Z,25.95
2023-04-29T16:25:03.662Z,20.27
2023-04-29T16:27:31.785Z,18.58
2023-04-29T16:30:00.731Z,17.23
2023-04-29T16:32:33.606Z,18.30
2023-04-29T16:35:02.289Z,16.40
2023-04-29T16:37:30.516Z,16.20
2023-04-29T16:39:58.875Z,14.77
2023-04-29T16:42:27.187Z,13.55
2023-04-29T16:44:55.385Z,18.10
2023-04-29T16:47:23.624Z,17.88
2023-04-29T16:49:52.205Z,16.23
2023-04-29T16:52:20.809Z,22.33
2023-04-29T16:54:48.891Z,15.60
2023-04-29T16:57:17.227Z,13.18
2023-04-29T16:59:45.429Z,12.57
2023-04-29T17:02:14.247Z,10.25
2023-04-29T17:04:42.424Z,16.88
2023-04-29T17:07:10.698Z,14.55
2023-04-29T17:09:39.012Z,16.75
2023-04-29T17:12:07.227Z,13.63
2023-04-29T17:14:35.529Z,12.75
2023-04-29T17:17:03.773Z,18.63
2023-04-29T17:19:32.136Z,13.80
2023-04-29T17:22:00.518Z,12.90
2023-04-29T17:24:28.609Z,11.80
2023-04-29T17:26:56.872Z,13.82
2023-04-29T17:29:25.022Z,15.20
2023-04-29T17:31:53.357Z,13.63
2023-04-29T17:34:21.687Z,12.15
2023-04-29T17:36:56.077Z,14.00
2023-04-29T17:39:24.246Z,22.00
2023-04-29T17:41:52.584Z,17.95
2023-04-29T17:44:23.145Z,11.70
2023-04-29T17:46:51.693Z,21.45
2023-04-29T17:49:19.963Z,16.73
2023-04-29T17:51:48.143Z,24.23
2023-04-29T17:54:16.384Z,26.20
2023-04-29T17:56:44.513Z,24.15
2023-04-29T17:59:12.666Z,25.98
2023-04-29T18:01:41.091Z,22.85
2023-04-29T18:04:09.386Z,25.60
2023-04-29T18:06:37.960Z,18.05
2023-04-29T18:09:06.359Z,26.35
2023-04-29T18:11:34.763Z,20.55
2023-04-29T18:14:02.940Z,13.52
2023-04-29T18:16:31.206Z,29.25
2023-04-29T18:18:59.618Z,25.27
2023-04-29T18:21:28.790Z,27.73
2023-04-29T18:23:57.643Z,34.78
2023-04-29T18:26:25.912Z,18.50
2023-04-29T18:28:54.172Z,25.00
2023-04-29T18:31:22.382Z,24.60
2023-04-29T18:33:50.860Z,21.63
2023-04-29T18:36:19.097Z,17.80
2023-04-29T18:38:47.562Z,17.83
2023-04-29T18:41:15.831Z,23.20
2023-04-29T18:43:44.083Z,31.70
2023-04-29T18:46:12.429Z,29.38
2023-04-29T18:48:40.709Z,26.38
2023-04-29T18:51:08.921Z,34.47
2023-04-29T18:53:37.419Z,30.75
2023-04-29T18:56:05.676Z,26.48
2023-04-29T18:58:33.979Z,30.83
2023-04-29T19:01:02.527Z,28.15
2023-04-29T19:03:31.117Z,40.85
2023-04-29T19:05:59.263Z,31.30
2023-04-29T19:08:27.614Z,33.60
2023-04-29T19:10:56.235Z,36.83
2023-04-29T19:13:25.424Z,38.28
2023-04-29T19:15:53.672Z,35.40
2023-04-29T19:18:22.136Z,43.55
2023-04-29T19:20:50.908Z,39.63
2023-04-29T19:23:19.138Z,71.00
2023-04-29T19:25:47.251Z,73.95
2023-04-29T19:28:15.526Z,67.32
2023-04-29T19:30:43.797Z,62.95
2023-04-29T19:33:12.182Z,51.45
2023-04-29T19:35:40.483Z,35.92
2023-04-29T19:38:08.822Z,31.48
2023-04-29T19:40:37.093Z,29.00
2023-04-29T19:43:05.339Z,32.25
2023-04-29T19:45:33.495Z,34.15
2023-04-29T19:48:03.695Z,32.28
2023-04-29T19:50:32.654Z,31.52
2023-04-29T19:53:01.023Z,46.47
2023-04-29T19:55:29.259Z,41.58
2023-04-29T19:57:57.495Z,50.38
2023-04-29T20:00:25.752Z,45.28
2023-04-29T20:02:54.211Z,23.23
2023-04-29T20:05:22.466Z,25.77
2023-04-29T20:07:50.857Z,24.42
2023-04-29T20:10:19.166Z,27.05
2023-04-29T20:12:47.534Z,29.08
2023-04-29T20:15:15.646Z,46.20
2023-04-29T20:17:44.065Z,51.42
2023-04-29T20:20:12.801Z,31.77
2023-04-29T20:22:43.096Z,25.48
2023-04-29T20:25:11.490Z,20.38
2023-04-29T20:27:39.593Z,25.73
2023-04-29T20:30:08.703Z,32.75
2023-04-29T20:32:37.159Z,29.63
2023-04-29T20:35:05.702Z,39.20
2023-04-29T20:37:33.962Z,31.92
2023-04-29T20:40:02.163Z,28.00
2023-04-29T20:42:30.581Z,22.23
2023-04-29T20:44:58.883Z,22.42
2023-04-29T20:47:27.345Z,33.97
2023-04-29T20:49:55.859Z,33.72
2023-04-29T20:52:24.323Z,34.58
2023-04-29T20:54:52.671Z,31.92
2023-04-29T20:57:20.777Z,42.97
2023-04-29T20:59:49.342Z,42.45
2023-04-29T21:02:18.206Z,34.20
2023-04-29T21:04:46.681Z,28.38
2023-04-29T21:07:14.805Z,34.80
2023-04-29T21:09:43.053Z,44.58
2023-04-29T21:12:11.394Z,27.65
2023-04-29T21:14:40.880Z,29.23
2023-04-29T21:17:11.201Z,27.77
2023-04-29T21:19:39.376Z,31.23
2023-04-29T21:22:07.715Z,26.15
2023-04-29T21:24:35.966Z,22.13
2023-04-29T21:27:04.230Z,27.73
2023-04-29T21:29:32.424Z,20.70
2023-04-29T21:32:00.741Z,21.08
2023-04-29T21:34:29.101Z,18.73
2023-04-29T21:36:57.475Z,24.83
2023-04-29T21:39:25.719Z,16.75
2023-04-29T21:41:54.389Z,20.60
2023-04-29T21:44:23.682Z,30.73
2023-04-29T21:46:53.099Z,19.25
2023-04-29T21:49:21.677Z,24.67
2023-04-29T21:51:50.095Z,30.23
2023-04-29T21:54:18.235Z,30.35
2023-04-29T21:56:49.414Z,23.83
2023-04-29T21:59:17.657Z,23.70
2023-04-29T22:01:48.821Z,23.65
2023-04-29T22:04:17.510Z,28.23
2023-04-29T22:06:45.819Z,24.42
2023-04-29T22:09:14.276Z,15.77
2023-04-29T22:11:42.598Z,22.83
2023-04-29T22:14:10.820Z,29.83
2023-04-29T22:16:39.197Z,22.15
2023-04-29T22:19:07.574Z,20.25
2023-04-29T22:21:35.846Z,20.63
2023-04-29T22:24:04.243Z,27.65
2023-04-29T22:26:32.609Z,25.15
2023-04-29T22:29:00.720Z,16.60
2023-04-29T22:31:28.950Z,24.30
2023-04-29T22:33:57.412Z,21.80
2023-04-29T22:36:25.557Z,16.45
2023-04-29T22:38:53.964Z,21.88
2023-04-29T22:41:22.295Z,18.70
2023-04-29T22:43:50.447Z,19.63
2023-04-29T22:46:18.816Z,22.67
2023-04-29T22:48:47.121Z,24.75
2023-04-29T22:51:15.391Z,17.05
2023-04-29T22:53:43.683Z,11.55
2023-04-29T22:56:12.699Z,13.85
2023-04-29T22:58:40.858Z,19.90
2023-04-29T23:01:11.355Z,15.43
2023-04-29T23:03:40.368Z,17.73
2023-04-29T23:06:08.710Z,16.35
2023-04-29T23:08:36.942Z,13.70
2023-04-29T23:11:05.227Z,14.10
2023-04-29T23:13:33.588Z,14.73
2023-04-29T23:16:01.698Z,19.30
2023-04-29T23:18:30.034Z,17.60
2023-04-29T23:20:58.414Z,12.85
2023-04-29T23:23:26.593Z,14.98
2023-04-29T23:25:54.998Z,19.35
2023-04-29T23:28:23.230Z,18.65
2023-04-29T23:30:51.384Z,23.15
2023-04-29T23:33:19.704Z,13.98
2023-04-29T23:35:54.743Z,18.80
2023-04-29T23:38:23.097Z,26.00
2023-04-29T23:40:51.300Z,17.10
2023-04-29T23:43:19.348Z,16.70
2023-04-29T23:45:47.770Z,20.10
2023-04-29T23:48:15.966Z,17.48
2023-04-29T23:50:44.375Z,21.00
2023-04-29T23:53:12.569Z,27.67
2023-04-29T23:55:40.903Z,28.95
2023-04-29T23:58:09.098Z,19.63
